Roaz — CQVY — position and weather

sailwx.info

Track history (hours):
 
Tides and Currents Weather Stations Pressure Air Temp Water Temp Dewpoint Dewpoint Depression Visibility Wind Speed Wind Dir Waves Ship Positions

Roaz

Last reported at 2018-Feb-18 00:55 UTC. Time now 2018-Feb-18 20:28 UTC.
Position N 39°28' W 009°42'.

Length 82 m; draft 5.7 m.

Type: Cargo ship. MMSI: 255929000.

Date/timePositionNaut miles runAvg speedWind from/ knotsBaromVisibWave heightAir tempDewpointWater temp
2018-Feb-18 00:55N 39°28' W 009°42'4 7.7
2018-Feb-18 00:24N 39°24' W 009°43'3 7.4
2018-Feb-18 00:00N 39°21' W 009°43'4 7.1
2018-Feb-17 23:30N 39°18' W 009°43'3 6.9
2018-Feb-17 23:00N 39°14' W 009°43'4 7.0
2018-Feb-17 22:30N 39°11' W 009°42'4 7.3
2018-Feb-17 21:59N 39°07' W 009°42'3 7.2
2018-Feb-17 21:30N 39°03' W 009°42'4 7.4
2018-Feb-17 21:00N 38°60' W 009°42'4 7.4
2018-Feb-17 20:30N 38°56' W 009°42'4 7.3
2018-Feb-17 20:00N 38°52' W 009°42'4 7.1
2018-Feb-17 19:30N 38°49' W 009°42'4 7.4
2018-Feb-17 19:00N 38°45' W 009°42'4 7.6
2018-Feb-17 18:30N 38°41' W 009°41'4 7.4
2018-Feb-17 18:00N 38°38' W 009°39'4 8.0
2018-Feb-17 17:30N 38°35' W 009°35'4 7.8
2018-Feb-17 17:00N 38°33' W 009°31'4 7.9
2018-Feb-17 16:30N 38°30' W 009°28'4 8.5
2018-Feb-17 16:00N 38°28' W 009°23'5 9.2
2018-Feb-17 15:30N 38°25' W 009°19'5 9.5
2018-Feb-17 15:00N 38°22' W 009°14'4 8.5
2018-Feb-17 14:29N 38°23' W 009°09'5 9.4
2018-Feb-17 14:00N 38°25' W 009°04'5 9.3
2018-Feb-17 13:30N 38°27' W 008°58'3 6.7
2018-Feb-17 13:00N 38°30' W 008°56'0 0.4
2018-Feb-17 12:30N 38°30' W 008°56'0 0.0
2018-Feb-17 12:00N 38°30' W 008°56'0 0.0
2018-Feb-17 11:30N 38°30' W 008°56'0 0.0
2018-Feb-17 11:00N 38°30' W 008°56'0 0.0
2018-Feb-17 10:30N 38°30' W 008°56'0 0.0
2018-Feb-17 09:59N 38°30' W 008°56'0 0.0
2018-Feb-17 09:30N 38°30' W 008°56'0 0.0
2018-Feb-17 09:00N 38°30' W 008°56'0 0.0
2018-Feb-17 08:29N 38°30' W 008°56'0 0.0
2018-Feb-17 07:58N 38°30' W 008°56'0 0.0
2018-Feb-17 07:30N 38°30' W 008°56'0 0.0
2018-Feb-17 07:00N 38°30' W 008°56'0 0.0
2018-Feb-17 06:25N 38°30' W 008°56'0 0.0
2018-Feb-17 06:00N 38°30' W 008°56'0 0.0
2018-Feb-17 05:30N 38°30' W 008°56'0 0.0
2018-Feb-17 05:00N 38°30' W 008°56'0 0.0
2018-Feb-17 04:30N 38°30' W 008°56'0 0.0
2018-Feb-17 04:00N 38°30' W 008°56'0 0.0
2018-Feb-17 03:30N 38°30' W 008°56'0 0.0
2018-Feb-17 03:00N 38°30' W 008°56'0 0.0
2018-Feb-17 02:30N 38°30' W 008°56'0 0.0
2018-Feb-17 02:00N 38°30' W 008°56'0 0.0
2018-Feb-17 01:30N 38°30' W 008°56'0 0.0
2018-Feb-17 00:59N 38°30' W 008°56'0 0.0
2018-Feb-17 00:30N 38°30' W 008°56'0 0.0
2018-Feb-17 00:00N 38°30' W 008°56'0 0.0
2018-Feb-16 23:30N 38°30' W 008°56'0 0.0
2018-Feb-16 23:00N 38°30' W 008°56'0 0.0
2018-Feb-16 22:30N 38°30' W 008°56'0 0.0
2018-Feb-16 21:58N 38°30' W 008°56'0 0.0
2018-Feb-16 21:30N 38°30' W 008°56'0 0.0
2018-Feb-16 21:00N 38°30' W 008°56'0 0.0
2018-Feb-16 20:30N 38°30' W 008°56'0 0.0
2018-Feb-16 20:00N 38°30' W 008°56'0 0.0
2018-Feb-16 19:30N 38°30' W 008°56'0 0.0
2018-Feb-16 19:00N 38°30' W 008°56'0 0.0
2018-Feb-16 18:30N 38°30' W 008°56'0 0.0
2018-Feb-16 17:59N 38°30' W 008°56'0 0.0
2018-Feb-16 17:29N 38°30' W 008°56'0 0.0
2018-Feb-16 17:00N 38°30' W 008°56'0 0.0
2018-Feb-16 16:27N 38°30' W 008°56'1 1.3
2018-Feb-16 16:00N 38°29' W 008°56'611.5
2018-Feb-16 15:30N 38°25' W 009°02'611.7
2018-Feb-16 15:00N 38°23' W 009°08'510.7
2018-Feb-16 14:30N 38°22' W 009°15'511.0
2018-Feb-16 14:00N 38°26' W 009°21'611.1
2018-Feb-16 13:30N 38°29' W 009°26'611.0
2018-Feb-16 13:00N 38°33' W 009°32'510.9
2018-Feb-16 12:30N 38°36' W 009°37'611.0
2018-Feb-16 12:00N 38°40' W 009°42'510.4
2018-Feb-16 11:30N 38°45' W 009°43'510.4
2018-Feb-16 11:00N 38°51' W 009°44'510.6
2018-Feb-16 10:30N 38°56' W 009°44'510.7
2018-Feb-16 10:00N 39°01' W 009°44'611.2
2018-Feb-16 09:30N 39°07' W 009°43'611.3
2018-Feb-16 09:00N 39°13' W 009°43'611.2
2018-Feb-16 08:29N 39°18' W 009°43'510.9
2018-Feb-16 08:00N 39°24' W 009°43'510.4
2018-Feb-16 07:29N 39°29' W 009°42'610.4
2018-Feb-16 06:57N 39°34' W 009°41'9710.3
2018-Feb-15 21:28N 41°02' W 008°44'4 9.4
2018-Feb-15 21:00N 41°06' W 008°42'5 9.4
2018-Feb-15 20:30N 41°11' W 008°42'1 1.3
2018-Feb-15 20:00N 41°11' W 008°42'0 0.0
2018-Feb-15 19:30N 41°11' W 008°42'0 0.0
2018-Feb-15 19:00N 41°11' W 008°42'0 0.0
2018-Feb-15 18:30N 41°11' W 008°42'0 0.0
2018-Feb-15 18:00N 41°11' W 008°42'0 0.0
2018-Feb-15 17:30N 41°11' W 008°42'0 0.0
2018-Feb-15 17:00N 41°11' W 008°42'0 0.0
2018-Feb-15 16:30N 41°11' W 008°42'0 0.0
2018-Feb-15 16:00N 41°11' W 008°42'0 0.0
2018-Feb-15 15:30N 41°11' W 008°42'0 0.0
2018-Feb-15 15:00N 41°11' W 008°42'0 0.0
2018-Feb-15 14:30N 41°11' W 008°42'0 0.0
2018-Feb-15 14:00N 41°11' W 008°42'0 0.0
2018-Feb-15 13:30N 41°11' W 008°42'0 0.0
2018-Feb-15 13:00N 41°11' W 008°42'0 0.0
2018-Feb-15 12:30N 41°11' W 008°42'0 0.0
2018-Feb-15 12:00N 41°11' W 008°42'0 0.0
2018-Feb-15 11:30N 41°11' W 008°42'0 0.0
2018-Feb-15 11:00N 41°11' W 008°42'0 0.0
2018-Feb-15 10:30N 41°11' W 008°42'0 0.0
2018-Feb-15 10:00N 41°11' W 008°42'0 0.0
2018-Feb-15 09:30N 41°11' W 008°42'0 0.0
2018-Feb-15 09:00N 41°11' W 008°42'0 0.0
2018-Feb-15 08:30N 41°11' W 008°42'0 0.0
2018-Feb-15 08:00N 41°11' W 008°42'0 0.0
2018-Feb-15 07:30N 41°11' W 008°42'0 0.0
2018-Feb-15 07:00N 41°11' W 008°42'0 0.0
2018-Feb-15 06:24N 41°11' W 008°42'0 0.0
2018-Feb-15 06:00N 41°11' W 008°42'0 0.0
2018-Feb-15 05:30N 41°11' W 008°42'0 0.0
2018-Feb-15 05:00N 41°11' W 008°42'0 0.0
2018-Feb-15 04:30N 41°11' W 008°42'0 0.0
2018-Feb-15 04:00N 41°11' W 008°42'0 0.0
2018-Feb-15 03:30N 41°11' W 008°42'0 0.0
2018-Feb-15 03:00N 41°11' W 008°42'0 0.0
2018-Feb-15 02:30N 41°11' W 008°42'0 0.0
2018-Feb-15 02:00N 41°11' W 008°42'0 0.0
2018-Feb-15 01:30N 41°11' W 008°42'0 0.0
2018-Feb-15 01:00N 41°11' W 008°42'0 0.0
2018-Feb-15 00:30N 41°11' W 008°42'0 0.0
2018-Feb-15 00:00N 41°11' W 008°42'0 0.0
2018-Feb-14 23:30N 41°11' W 008°42'0 0.0
2018-Feb-14 23:00N 41°11' W 008°42'0 0.0
2018-Feb-14 22:30N 41°11' W 008°42'0 0.0
2018-Feb-14 22:00N 41°11' W 008°42'0 0.0
2018-Feb-14 21:30N 41°11' W 008°42'0 0.0
2018-Feb-14 21:00N 41°11' W 008°42'0 0.0
2018-Feb-14 20:30N 41°11' W 008°42'0 0.0
2018-Feb-14 20:00N 41°11' W 008°42'0 0.0
2018-Feb-14 19:30N 41°11' W 008°42'0 0.0
2018-Feb-14 19:00N 41°11' W 008°42'0 0.6
2018-Feb-14 18:30N 41°11' W 008°42'3 5.4
2018-Feb-14 18:00N 41°08' W 008°42'1 1.2
2018-Feb-14 17:30N 41°08' W 008°43'4 8.3
2018-Feb-14 16:59N 41°03' W 008°44'110 9.5
2018-Feb-14 05:28N 39°23' W 009°42'4 9.4
2018-Feb-14 05:00N 39°19' W 009°42'4 9.2
2018-Feb-14 04:31N 39°14' W 009°43'5 9.4
2018-Feb-14 04:01N 39°09' W 009°43'5 9.4
2018-Feb-14 03:31N 39°05' W 009°43'5 9.4
2018-Feb-14 03:00N 38°60' W 009°43'5 9.5
2018-Feb-14 02:30N 38°55' W 009°42'5 9.5
2018-Feb-14 02:00N 38°51' W 009°42'5 9.4
2018-Feb-14 01:31N 38°46' W 009°42'5 9.2
2018-Feb-14 01:01N 38°41' W 009°41'4 8.7
2018-Feb-14 00:30N 38°38' W 009°38'4 8.9
2018-Feb-14 00:00N 38°35' W 009°33'4 8.9
2018-Feb-13 23:31N 38°32' W 009°29'4 9.0
2018-Feb-13 23:00N 38°28' W 009°25'4 8.9
2018-Feb-13 22:31N 38°25' W 009°21'5 9.0
2018-Feb-13 21:59N 38°22' W 009°16'4 8.2
2018-Feb-13 21:30N 38°22' W 009°11'5 9.2
2018-Feb-13 21:00N 38°24' W 009°06'5 9.1
2018-Feb-13 20:30N 38°26' W 009°01'5 9.1
2018-Feb-13 20:00N 38°29' W 008°57'1 0.8
2018-Feb-13 18:43N 38°30' W 008°56'0 0.0
2018-Feb-13 18:22N 38°30' W 008°56'0 0.0
2018-Feb-13 17:55N 38°30' W 008°56'0 0.0
2018-Feb-13 17:28N 38°30' W 008°56'0 0.0
2018-Feb-13 16:46N 38°30' W 008°56'0 0.0
2018-Feb-13 16:28N 38°30' W 008°56'0 0.0
2018-Feb-13 15:55N 38°30' W 008°56'0 0.0
2018-Feb-13 15:28N 38°30' W 008°56'0 0.0
2018-Feb-13 14:58N 38°30' W 008°56'0 0.0
2018-Feb-13 14:25N 38°30' W 008°56'0 0.0
2018-Feb-13 11:55N 38°30' W 008°56'0 0.0
2018-Feb-13 11:25N 38°30' W 008°56'0 0.0
2018-Feb-13 10:55N 38°30' W 008°56'0 0.0
2018-Feb-13 10:25N 38°30' W 008°56'0 0.0
2018-Feb-13 10:01N 38°30' W 008°56'2 4.9
2018-Feb-13 09:30N 38°28' W 008°58'611.5
2018-Feb-13 09:00N 38°24' W 009°04'611.5
2018-Feb-13 08:29N 38°22' W 009°11'510.3
2018-Feb-13 08:00N 38°23' W 009°17'611.2
2018-Feb-13 07:31N 38°26' W 009°23'611.3
2018-Feb-13 07:01N 38°30' W 009°28'611.3
2018-Feb-13 06:30N 38°34' W 009°34'611.3
2018-Feb-13 06:01N 38°37' W 009°39'510.1
2018-Feb-13 05:30N 38°42' W 009°43'611.2
2018-Feb-13 05:00N 38°47' W 009°43'611.1
2018-Feb-13 04:30N 38°53' W 009°44'510.8
2018-Feb-13 04:01N 38°58' W 009°44'510.8
2018-Feb-13 03:30N 39°03' W 009°44'510.8
2018-Feb-13 03:00N 39°09' W 009°43'510.9
2018-Feb-13 02:30N 39°14' W 009°43'610.5
2018-Feb-13 01:59N 39°20' W 009°43'112 2.3
2018-Feb-11 00:49N 41°05' W 008°52'111 8.4
2018-Feb-10 11:29N 39°20' W 009°43'4 7.4
2018-Feb-10 11:00N 39°16' W 009°43'4 7.4
2018-Feb-10 10:30N 39°13' W 009°43'3 7.0
2018-Feb-10 10:00N 39°09' W 009°42'3 6.5
2018-Feb-10 09:30N 39°06' W 009°42'3 6.7
2018-Feb-10 09:00N 39°03' W 009°42'3 6.6
2018-Feb-10 08:30N 38°59' W 009°42'3 6.6
2018-Feb-10 08:00N 38°56' W 009°42'3 6.4
2018-Feb-10 07:30N 38°53' W 009°42'3 6.3
2018-Feb-10 07:00N 38°50' W 009°42'3 6.1
2018-Feb-10 06:31N 38°47' W 009°42'3 6.3
2018-Feb-10 06:01N 38°43' W 009°41'3 6.2
2018-Feb-10 05:30N 38°40' W 009°41'3 6.1
2018-Feb-10 05:01N 38°38' W 009°38'3 5.7
2018-Feb-10 04:30N 38°36' W 009°36'3 6.5
2018-Feb-10 04:00N 38°34' W 009°33'3 6.9
2018-Feb-10 03:31N 38°32' W 009°29'4 7.3
2018-Feb-10 03:00N 38°29' W 009°26'4 7.5
2018-Feb-10 02:30N 38°27' W 009°22'4 8.3
2018-Feb-10 02:01N 38°24' W 009°18'4 8.7
2018-Feb-10 01:31N 38°22' W 009°13'5 9.2
2018-Feb-10 00:59N 38°23' W 009°07'5 9.7
2018-Feb-10 00:31N 38°25' W 009°02'5 9.3
2018-Feb-10 00:01N 38°28' W 008°57'2 0.1
2018-Feb-09 08:30N 38°30' W 008°56'9 8.5
2018-Feb-09 07:30N 38°23' W 009°02'5 4.6
2018-Feb-09 06:30N 38°22' W 009°08'1010.1
2018-Feb-09 05:30N 38°19' W 009°20'2510.1
2018-Feb-09 03:00N 37°60' W 009°41'  
Track history (hours):
 
Tides and Currents Weather Stations Pressure Air Temp Water Temp Dewpoint Dewpoint Depression Visibility Wind Speed Wind Dir Waves Ship Positions

Roaz

Last reported at 2018-Feb-18 00:55 UTC. Time now 2018-Feb-18 20:28 UTC.
Position N 39°28' W 009°42'.

Length 82 m; draft 5.7 m.

Type: Cargo ship. MMSI: 255929000.

Date/timePositionNaut miles runAvg speedWind from/ knotsBaromVisibWave heightAir tempDewpointWater temp
2018-Feb-18 00:55N 39°28' W 009°42'4 7.7
2018-Feb-18 00:24N 39°24' W 009°43'3 7.4
2018-Feb-18 00:00N 39°21' W 009°43'4 7.1
2018-Feb-17 23:30N 39°18' W 009°43'3 6.9
2018-Feb-17 23:00N 39°14' W 009°43'4 7.0
2018-Feb-17 22:30N 39°11' W 009°42'4 7.3
2018-Feb-17 21:59N 39°07' W 009°42'3 7.2
2018-Feb-17 21:30N 39°03' W 009°42'4 7.4
2018-Feb-17 21:00N 38°60' W 009°42'4 7.4
2018-Feb-17 20:30N 38°56' W 009°42'4 7.3
2018-Feb-17 20:00N 38°52' W 009°42'4 7.1
2018-Feb-17 19:30N 38°49' W 009°42'4 7.4
2018-Feb-17 19:00N 38°45' W 009°42'4 7.6
2018-Feb-17 18:30N 38°41' W 009°41'4 7.4
2018-Feb-17 18:00N 38°38' W 009°39'4 8.0
2018-Feb-17 17:30N 38°35' W 009°35'4 7.8
2018-Feb-17 17:00N 38°33' W 009°31'4 7.9
2018-Feb-17 16:30N 38°30' W 009°28'4 8.5
2018-Feb-17 16:00N 38°28' W 009°23'5 9.2
2018-Feb-17 15:30N 38°25' W 009°19'5 9.5
2018-Feb-17 15:00N 38°22' W 009°14'4 8.5
2018-Feb-17 14:29N 38°23' W 009°09'5 9.4
2018-Feb-17 14:00N 38°25' W 009°04'5 9.3
2018-Feb-17 13:30N 38°27' W 008°58'3 6.7
2018-Feb-17 13:00N 38°30' W 008°56'0 0.4
2018-Feb-17 12:30N 38°30' W 008°56'0 0.0
2018-Feb-17 12:00N 38°30' W 008°56'0 0.0
2018-Feb-17 11:30N 38°30' W 008°56'0 0.0
2018-Feb-17 11:00N 38°30' W 008°56'0 0.0
2018-Feb-17 10:30N 38°30' W 008°56'0 0.0
2018-Feb-17 09:59N 38°30' W 008°56'0 0.0
2018-Feb-17 09:30N 38°30' W 008°56'0 0.0
2018-Feb-17 09:00N 38°30' W 008°56'0 0.0
2018-Feb-17 08:29N 38°30' W 008°56'0 0.0
2018-Feb-17 07:58N 38°30' W 008°56'0 0.0
2018-Feb-17 07:30N 38°30' W 008°56'0 0.0
2018-Feb-17 07:00N 38°30' W 008°56'0 0.0
2018-Feb-17 06:25N 38°30' W 008°56'0 0.0
2018-Feb-17 06:00N 38°30' W 008°56'0 0.0
2018-Feb-17 05:30N 38°30' W 008°56'0 0.0
2018-Feb-17 05:00N 38°30' W 008°56'0 0.0
2018-Feb-17 04:30N 38°30' W 008°56'0 0.0
2018-Feb-17 04:00N 38°30' W 008°56'0 0.0
2018-Feb-17 03:30N 38°30' W 008°56'0 0.0
2018-Feb-17 03:00N 38°30' W 008°56'0 0.0
2018-Feb-17 02:30N 38°30' W 008°56'0 0.0
2018-Feb-17 02:00N 38°30' W 008°56'0 0.0
2018-Feb-17 01:30N 38°30' W 008°56'0 0.0
2018-Feb-17 00:59N 38°30' W 008°56'0 0.0
2018-Feb-17 00:30N 38°30' W 008°56'0 0.0
2018-Feb-17 00:00N 38°30' W 008°56'0 0.0
2018-Feb-16 23:30N 38°30' W 008°56'0 0.0
2018-Feb-16 23:00N 38°30' W 008°56'0 0.0
2018-Feb-16 22:30N 38°30' W 008°56'0 0.0
2018-Feb-16 21:58N 38°30' W 008°56'0 0.0
2018-Feb-16 21:30N 38°30' W 008°56'0 0.0
2018-Feb-16 21:00N 38°30' W 008°56'0 0.0
2018-Feb-16 20:30N 38°30' W 008°56'0 0.0
2018-Feb-16 20:00N 38°30' W 008°56'0 0.0
2018-Feb-16 19:30N 38°30' W 008°56'0 0.0
2018-Feb-16 19:00N 38°30' W 008°56'0 0.0
2018-Feb-16 18:30N 38°30' W 008°56'0 0.0
2018-Feb-16 17:59N 38°30' W 008°56'0 0.0
2018-Feb-16 17:29N 38°30' W 008°56'0 0.0
2018-Feb-16 17:00N 38°30' W 008°56'0 0.0
2018-Feb-16 16:27N 38°30' W 008°56'1 1.3
2018-Feb-16 16:00N 38°29' W 008°56'611.5
2018-Feb-16 15:30N 38°25' W 009°02'611.7
2018-Feb-16 15:00N 38°23' W 009°08'510.7
2018-Feb-16 14:30N 38°22' W 009°15'511.0
2018-Feb-16 14:00N 38°26' W 009°21'611.1
2018-Feb-16 13:30N 38°29' W 009°26'611.0
2018-Feb-16 13:00N 38°33' W 009°32'510.9
2018-Feb-16 12:30N 38°36' W 009°37'611.0
2018-Feb-16 12:00N 38°40' W 009°42'510.4
2018-Feb-16 11:30N 38°45' W 009°43'510.4
2018-Feb-16 11:00N 38°51' W 009°44'510.6
2018-Feb-16 10:30N 38°56' W 009°44'510.7
2018-Feb-16 10:00N 39°01' W 009°44'611.2
2018-Feb-16 09:30N 39°07' W 009°43'611.3
2018-Feb-16 09:00N 39°13' W 009°43'611.2
2018-Feb-16 08:29N 39°18' W 009°43'510.9
2018-Feb-16 08:00N 39°24' W 009°43'510.4
2018-Feb-16 07:29N 39°29' W 009°42'610.4
2018-Feb-16 06:57N 39°34' W 009°41'9710.3
2018-Feb-15 21:28N 41°02' W 008°44'4 9.4
2018-Feb-15 21:00N 41°06' W 008°42'5 9.4
2018-Feb-15 20:30N 41°11' W 008°42'1 1.3
2018-Feb-15 20:00N 41°11' W 008°42'0 0.0
2018-Feb-15 19:30N 41°11' W 008°42'0 0.0
2018-Feb-15 19:00N 41°11' W 008°42'0 0.0
2018-Feb-15 18:30N 41°11' W 008°42'0 0.0
2018-Feb-15 18:00N 41°11' W 008°42'0 0.0
2018-Feb-15 17:30N 41°11' W 008°42'0 0.0
2018-Feb-15 17:00N 41°11' W 008°42'0 0.0
2018-Feb-15 16:30N 41°11' W 008°42'0 0.0
2018-Feb-15 16:00N 41°11' W 008°42'0 0.0
2018-Feb-15 15:30N 41°11' W 008°42'0 0.0
2018-Feb-15 15:00N 41°11' W 008°42'0 0.0
2018-Feb-15 14:30N 41°11' W 008°42'0 0.0
2018-Feb-15 14:00N 41°11' W 008°42'0 0.0
2018-Feb-15 13:30N 41°11' W 008°42'0 0.0
2018-Feb-15 13:00N 41°11' W 008°42'0 0.0
2018-Feb-15 12:30N 41°11' W 008°42'0 0.0
2018-Feb-15 12:00N 41°11' W 008°42'0 0.0
2018-Feb-15 11:30N 41°11' W 008°42'0 0.0
2018-Feb-15 11:00N 41°11' W 008°42'0 0.0
2018-Feb-15 10:30N 41°11' W 008°42'0 0.0
2018-Feb-15 10:00N 41°11' W 008°42'0 0.0
2018-Feb-15 09:30N 41°11' W 008°42'0 0.0
2018-Feb-15 09:00N 41°11' W 008°42'0 0.0
2018-Feb-15 08:30N 41°11' W 008°42'0 0.0
2018-Feb-15 08:00N 41°11' W 008°42'0 0.0
2018-Feb-15 07:30N 41°11' W 008°42'0 0.0
2018-Feb-15 07:00N 41°11' W 008°42'0 0.0
2018-Feb-15 06:24N 41°11' W 008°42'0 0.0
2018-Feb-15 06:00N 41°11' W 008°42'0 0.0
2018-Feb-15 05:30N 41°11' W 008°42'0 0.0
2018-Feb-15 05:00N 41°11' W 008°42'0 0.0
2018-Feb-15 04:30N 41°11' W 008°42'0 0.0
2018-Feb-15 04:00N 41°11' W 008°42'0 0.0
2018-Feb-15 03:30N 41°11' W 008°42'0 0.0
2018-Feb-15 03:00N 41°11' W 008°42'0 0.0
2018-Feb-15 02:30N 41°11' W 008°42'0 0.0
2018-Feb-15 02:00N 41°11' W 008°42'0 0.0
2018-Feb-15 01:30N 41°11' W 008°42'0 0.0
2018-Feb-15 01:00N 41°11' W 008°42'0 0.0
2018-Feb-15 00:30N 41°11' W 008°42'0 0.0
2018-Feb-15 00:00N 41°11' W 008°42'0 0.0
2018-Feb-14 23:30N 41°11' W 008°42'0 0.0
2018-Feb-14 23:00N 41°11' W 008°42'0 0.0
2018-Feb-14 22:30N 41°11' W 008°42'0 0.0
2018-Feb-14 22:00N 41°11' W 008°42'0 0.0
2018-Feb-14 21:30N 41°11' W 008°42'0 0.0
2018-Feb-14 21:00N 41°11' W 008°42'0 0.0
2018-Feb-14 20:30N 41°11' W 008°42'0 0.0
2018-Feb-14 20:00N 41°11' W 008°42'0 0.0
2018-Feb-14 19:30N 41°11' W 008°42'0 0.0
2018-Feb-14 19:00N 41°11' W 008°42'0 0.6
2018-Feb-14 18:30N 41°11' W 008°42'3 5.4
2018-Feb-14 18:00N 41°08' W 008°42'1 1.2
2018-Feb-14 17:30N 41°08' W 008°43'4 8.3
2018-Feb-14 16:59N 41°03' W 008°44'110 9.5
2018-Feb-14 05:28N 39°23' W 009°42'4 9.4
2018-Feb-14 05:00N 39°19' W 009°42'4 9.2
2018-Feb-14 04:31N 39°14' W 009°43'5 9.4
2018-Feb-14 04:01N 39°09' W 009°43'5 9.4
2018-Feb-14 03:31N 39°05' W 009°43'5 9.4
2018-Feb-14 03:00N 38°60' W 009°43'5 9.5
2018-Feb-14 02:30N 38°55' W 009°42'5 9.5
2018-Feb-14 02:00N 38°51' W 009°42'5 9.4
2018-Feb-14 01:31N 38°46' W 009°42'5 9.2
2018-Feb-14 01:01N 38°41' W 009°41'4 8.7
2018-Feb-14 00:30N 38°38' W 009°38'4 8.9
2018-Feb-14 00:00N 38°35' W 009°33'4 8.9
2018-Feb-13 23:31N 38°32' W 009°29'4 9.0
2018-Feb-13 23:00N 38°28' W 009°25'4 8.9
2018-Feb-13 22:31N 38°25' W 009°21'5 9.0
2018-Feb-13 21:59N 38°22' W 009°16'4 8.2
2018-Feb-13 21:30N 38°22' W 009°11'5 9.2
2018-Feb-13 21:00N 38°24' W 009°06'5 9.1
2018-Feb-13 20:30N 38°26' W 009°01'5 9.1
2018-Feb-13 20:00N 38°29' W 008°57'1 0.8
2018-Feb-13 18:43N 38°30' W 008°56'0 0.0
2018-Feb-13 18:22N 38°30' W 008°56'0 0.0
2018-Feb-13 17:55N 38°30' W 008°56'0 0.0
2018-Feb-13 17:28N 38°30' W 008°56'0 0.0
2018-Feb-13 16:46N 38°30' W 008°56'0 0.0
2018-Feb-13 16:28N 38°30' W 008°56'0 0.0
2018-Feb-13 15:55N 38°30' W 008°56'0 0.0
2018-Feb-13 15:28N 38°30' W 008°56'0 0.0
2018-Feb-13 14:58N 38°30' W 008°56'0 0.0
2018-Feb-13 14:25N 38°30' W 008°56'0 0.0
2018-Feb-13 11:55N 38°30' W 008°56'0 0.0
2018-Feb-13 11:25N 38°30' W 008°56'0 0.0
2018-Feb-13 10:55N 38°30' W 008°56'0 0.0
2018-Feb-13 10:25N 38°30' W 008°56'0 0.0
2018-Feb-13 10:01N 38°30' W 008°56'2 4.9
2018-Feb-13 09:30N 38°28' W 008°58'611.5
2018-Feb-13 09:00N 38°24' W 009°04'611.5
2018-Feb-13 08:29N 38°22' W 009°11'510.3
2018-Feb-13 08:00N 38°23' W 009°17'611.2
2018-Feb-13 07:31N 38°26' W 009°23'611.3
2018-Feb-13 07:01N 38°30' W 009°28'611.3
2018-Feb-13 06:30N 38°34' W 009°34'611.3
2018-Feb-13 06:01N 38°37' W 009°39'510.1
2018-Feb-13 05:30N 38°42' W 009°43'611.2
2018-Feb-13 05:00N 38°47' W 009°43'611.1
2018-Feb-13 04:30N 38°53' W 009°44'510.8
2018-Feb-13 04:01N 38°58' W 009°44'510.8
2018-Feb-13 03:30N 39°03' W 009°44'510.8
2018-Feb-13 03:00N 39°09' W 009°43'510.9
2018-Feb-13 02:30N 39°14' W 009°43'610.5
2018-Feb-13 01:59N 39°20' W 009°43'112 2.3
2018-Feb-11 00:49N 41°05' W 008°52'111 8.4
2018-Feb-10 11:29N 39°20' W 009°43'4 7.4
2018-Feb-10 11:00N 39°16' W 009°43'4 7.4
2018-Feb-10 10:30N 39°13' W 009°43'3 7.0
2018-Feb-10 10:00N 39°09' W 009°42'3 6.5
2018-Feb-10 09:30N 39°06' W 009°42'3 6.7
2018-Feb-10 09:00N 39°03' W 009°42'3 6.6
2018-Feb-10 08:30N 38°59' W 009°42'3 6.6
2018-Feb-10 08:00N 38°56' W 009°42'3 6.4
2018-Feb-10 07:30N 38°53' W 009°42'3 6.3
2018-Feb-10 07:00N 38°50' W 009°42'3 6.1
2018-Feb-10 06:31N 38°47' W 009°42'3 6.3
2018-Feb-10 06:01N 38°43' W 009°41'3 6.2
2018-Feb-10 05:30N 38°40' W 009°41'3 6.1
2018-Feb-10 05:01N 38°38' W 009°38'3 5.7
2018-Feb-10 04:30N 38°36' W 009°36'3 6.5
2018-Feb-10 04:00N 38°34' W 009°33'3 6.9
2018-Feb-10 03:31N 38°32' W 009°29'4 7.3
2018-Feb-10 03:00N 38°29' W 009°26'4 7.5
2018-Feb-10 02:30N 38°27' W 009°22'4 8.3
2018-Feb-10 02:01N 38°24' W 009°18'4 8.7
2018-Feb-10 01:31N 38°22' W 009°13'5 9.2
2018-Feb-10 00:59N 38°23' W 009°07'5 9.7
2018-Feb-10 00:31N 38°25' W 009°02'5 9.3
2018-Feb-10 00:01N 38°28' W 008°57'2 0.1
2018-Feb-09 08:30N 38°30' W 008°56'9 8.5
2018-Feb-09 07:30N 38°23' W 009°02'5 4.6
2018-Feb-09 06:30N 38°22' W 009°08'1010.1
2018-Feb-09 05:30N 38°19' W 009°20'2510.1
2018-Feb-09 03:00N 37°60' W 009°41'  

Dump ship's entire track history